Time;durP1;ratioP1;P1;durP2;ratioP2;P2;SDS_P1;SDS_P2;PMS_P1;PMS_P2;Temp;Humidity;BMP_temperature;BMP_pressure;BME280_temperature;BME280_humidity;BME280_pressure;Samples;Min_cycle;Max_cycle;Signal;HPM_P1;HPM_P2
2023/02/01 00:00:07;;;;;;;;;;;;;;;;;;1043581;28;19951;-75
2023/02/01 00:00:38;;;;;;;;;;;;;;;;;;1043511;28;20350;-76
2023/02/01 00:01:09;;;;;;;;;;;;;;;;;;1043854;28;20555;-76
2023/02/01 00:01:39;;;;;;;;;;;;;;;;;;1043706;28;19913;-75
2023/02/01 00:02:10;;;;;;;;;;;;;;;;;;1048277;28;20261;-76
2023/02/01 00:02:41;;;;;;;;;;;;;;;;;;1043416;28;20004;-75
2023/02/01 00:03:14;;;;;;;;;;;;;;;;;;1043671;28;19924;-76
2023/02/01 00:03:45;;;;;;;;;;;;;;;;;;1043576;28;19940;-76
2023/02/01 00:04:16;;;;;;;;;;;;;;;;;;1043794;28;19913;-76
2023/02/01 00:04:47;;;;;;;;;;;;;;;;;;1044154;28;19904;-75
2023/02/01 00:05:18;;;;;;;;;;;;;;;;;;1047991;28;20430;-76
2023/02/01 00:05:48;;;;;;;;;;;;;;;;;;1048190;28;19919;-76
2023/02/01 00:06:19;;;;;;;;;;;;;;;;;;1048086;28;19909;-77
2023/02/01 00:06:50;;;;;;;;;;;;;;;;;;1048195;28;19909;-76
2023/02/01 00:07:21;;;;;;;;;;;;;;;;;;1043323;28;19920;-76
2023/02/01 00:07:52;;;;;;;;;;;;;;;;;;1043767;28;19913;-75
2023/02/01 00:08:23;;;;;;;;;;;;;;;;;;1043540;28;19909;-75
2023/02/01 00:08:54;;;;;;;;;;;;;;;;;;1043852;28;19988;-75
2023/02/01 00:09:25;;;;;;;;;;;;;;;;;;1043401;28;20356;-78
2023/02/01 00:09:55;;;;;;;;;;;;;;;;;;1043747;28;19944;-76
2023/02/01 00:10:26;;;;;;;;;;;;;;;;;;1043567;28;19912;-76
2023/02/01 00:10:57;;;;;;;;;;;;;;;;;;1043523;28;19908;-75
2023/02/01 00:11:28;;;;;;;;;;;;;;;;;;1039879;28;19909;-78
2023/02/01 00:12:01;;;;;;;;;;;;;;;;;;1043474;28;19909;-77
2023/02/01 00:12:32;;;;;;;;;;;;;;;;;;1039104;28;19912;-77
2023/02/01 00:13:03;;;;;;;;;;;;;;;;;;1039815;28;19916;-77
2023/02/01 00:13:34;;;;;;;;;;;;;;;;;;1036005;28;20004;-76
2023/02/01 00:14:05;;;;;;;;;;;;;;;;;;1039707;28;19932;-77
2023/02/01 00:14:38;;;;;;;;;;;;;;;;;;1039425;28;19916;-76
2023/02/01 00:15:09;;;;;;;;;;;;;;;;;;1040116;28;19987;-76
2023/02/01 00:15:40;;;;;;;;;;;;;;;;;;1043566;28;19958;-75
2023/02/01 00:16:12;;;;;;;;;;;;;;;;;;1043517;28;19924;-76
2023/02/01 00:16:42;;;;;;;;;;;;;;;;;;1043383;28;19909;-76
2023/02/01 00:17:13;;;;;;;;;;;;;;;;;;1043723;28;19908;-77
2023/02/01 00:17:44;;;;;;;;;;;;;;;;;;1039644;28;19912;-77
2023/02/01 00:18:15;;;;;;;;;;;;;;;;;;1043615;28;19955;-76
2023/02/01 00:18:46;;;;;;;;;;;;;;;;;;1039348;28;20356;-75
2023/02/01 00:19:17;;;;;;;;;;;;;;;;;;1039843;28;19915;-76
2023/02/01 00:19:48;;;;;;;;;;;;;;;;;;1043688;28;20288;-76
2023/02/01 00:20:18;;;;;;;;;;;;;;;;;;1043990;28;19909;-77
2023/02/01 00:20:49;;;;;;;;;;;;;;;;;;1043387;28;20287;-77
2023/02/01 00:21:20;;;;;;;;;;;;;;;;;;1043569;28;19908;-76
2023/02/01 00:21:51;;;;;;;;;;;;;;;;;;1039426;28;19912;-77
2023/02/01 00:22:22;;;;;;;;;;;;;;;;;;1039445;28;20611;-76
2023/02/01 00:22:53;;;;;;;;;;;;;;;;;;1039544;28;19917;-77
2023/02/01 00:23:24;;;;;;;;;;;;;;;;;;1039383;28;19909;-77
2023/02/01 00:23:55;;;;;;;;;;;;;;;;;;1039714;28;20378;-77
2023/02/01 00:24:25;;;;;;;;;;;;;;;;;;1043515;28;19948;-77
2023/02/01 00:24:56;;;;;;;;;;;;;;;;;;1043460;28;20364;-77
2023/02/01 00:25:27;;;;;;;;;;;;;;;;;;1043671;28;19908;-76
2023/02/01 00:25:58;;;;;;;;;;;;;;;;;;1039020;28;19920;-77
2023/02/01 00:26:29;;;;;;;;;;;;;;;;;;1039560;28;20379;-76
2023/02/01 00:27:00;;;;;;;;;;;;;;;;;;1043596;28;19909;-77
2023/02/01 00:27:31;;;;;;;;;;;;;;;;;;1043568;28;20453;-76
2023/02/01 00:28:02;;;;;;;;;;;;;;;;;;1045529;28;20592;-76
2023/02/01 00:28:32;;;;;;;;;;;;;;;;;;1047950;28;19915;-76
2023/02/01 00:29:03;;;;;;;;;;;;;;;;;;1051732;28;19939;-77
2023/02/01 00:29:34;;;;;;;;;;;;;;;;;;1048073;28;19908;-75
2023/02/01 00:30:05;;;;;;;;;;;;;;;;;;1043478;28;19909;-77
2023/02/01 00:30:36;;;;;;;;;;;;;;;;;;1043442;28;19916;-77
2023/02/01 00:31:07;;;;;;;;;;;;;;;;;;1043714;28;19909;-77
2023/02/01 00:31:38;;;;;;;;;;;;;;;;;;1043370;28;20024;-77
2023/02/01 00:32:08;;;;;;;;;;;;;;;;;;1043635;28;20725;-77
2023/02/01 00:32:39;;;;;;;;;;;;;;;;;;1039479;28;19909;-77
2023/02/01 00:33:10;;;;;;;;;;;;;;;;;;1039674;28;19912;-77
2023/02/01 00:33:41;;;;;;;;;;;;;;;;;;1043487;28;19931;-77
2023/02/01 00:34:12;;;;;;;;;;;;;;;;;;1043524;28;19908;-78
2023/02/01 00:34:43;;;;;;;;;;;;;;;;;;1045670;28;20039;-78
2023/02/01 00:35:14;;;;;;;;;;;;;;;;;;1051885;28;20355;-77
2023/02/01 00:35:48;;;;;;;;;;;;;;;;;;1051691;28;19916;-77
2023/02/01 00:36:18;;;;;;;;;;;;;;;;;;1047750;28;19919;-77
2023/02/01 00:36:49;;;;;;;;;;;;;;;;;;1043584;28;19909;-77
2023/02/01 00:37:21;;;;;;;;;;;;;;;;;;1043504;28;20442;-77
2023/02/01 00:37:52;;;;;;;;;;;;;;;;;;1043472;28;20287;-77
2023/02/01 00:38:23;;;;;;;;;;;;;;;;;;1043222;28;20380;-77
2023/02/01 00:38:54;;;;;;;;;;;;;;;;;;1043801;28;20023;-77
2023/02/01 00:39:24;;;;;;;;;;;;;;;;;;1043333;28;20367;-78
2023/02/01 00:39:55;;;;;;;;;;;;;;;;;;1040410;28;19905;-78
2023/02/01 00:40:26;;;;;;;;;;;;;;;;;;1043480;28;19968;-77
2023/02/01 00:40:57;;;;;;;;;;;;;;;;;;1043745;28;19908;-77
2023/02/01 00:41:28;;;;;;;;;;;;;;;;;;1039922;28;19909;-77
2023/02/01 00:41:59;;;;;;;;;;;;;;;;;;1039541;28;19991;-77
2023/02/01 00:42:31;;;;;;;;;;;;;;;;;;1039378;28;19909;-76
2023/02/01 00:43:02;;;;;;;;;;;;;;;;;;1039587;28;19909;-77
2023/02/01 00:43:33;;;;;;;;;;;;;;;;;;1039380;28;19921;-78
2023/02/01 00:44:04;;;;;;;;;;;;;;;;;;1039928;28;20580;-78
2023/02/01 00:44:35;;;;;;;;;;;;;;;;;;1036861;28;19940;-77
2023/02/01 00:45:06;;;;;;;;;;;;;;;;;;1038150;28;19913;-77
2023/02/01 00:45:37;;;;;;;;;;;;;;;;;;1034980;28;19913;-78
2023/02/01 00:46:08;;;;;;;;;;;;;;;;;;1036113;28;20031;-77
2023/02/01 00:46:39;;;;;;;;;;;;;;;;;;1034908;28;19914;-78
2023/02/01 00:47:10;;;;;;;;;;;;;;;;;;1035723;28;20391;-77
2023/02/01 00:47:41;;;;;;;;;;;;;;;;;;1039382;28;20388;-77
2023/02/01 00:48:12;;;;;;;;;;;;;;;;;;1039506;28;20032;-77
2023/02/01 00:48:42;;;;;;;;;;;;;;;;;;1039249;28;20343;-77
2023/02/01 00:49:13;;;;;;;;;;;;;;;;;;1039463;28;19960;-77
2023/02/01 00:49:44;;;;;;;;;;;;;;;;;;1039346;28;19987;-77
2023/02/01 00:50:15;;;;;;;;;;;;;;;;;;1039347;28;19998;-77
2023/02/01 00:50:46;;;;;;;;;;;;;;;;;;1039385;28;19991;-77
2023/02/01 00:51:17;;;;;;;;;;;;;;;;;;1035146;28;19957;-76
2023/02/01 00:51:48;;;;;;;;;;;;;;;;;;1035367;28;19928;-77
2023/02/01 00:52:19;;;;;;;;;;;;;;;;;;1035104;28;19920;-78
2023/02/01 00:52:49;;;;;;;;;;;;;;;;;;1039781;28;19926;-77
2023/02/01 00:53:20;;;;;;;;;;;;;;;;;;1039146;28;20588;-78
2023/02/01 00:53:51;;;;;;;;;;;;;;;;;;1039465;28;19913;-77
2023/02/01 00:54:22;;;;;;;;;;;;;;;;;;1035029;28;19913;-77
2023/02/01 00:54:53;;;;;;;;;;;;;;;;;;1035716;28;20392;-77
2023/02/01 00:55:24;;;;;;;;;;;;;;;;;;1039169;28;19909;-76
2023/02/01 00:55:56;;;;;;;;;;;;;;;;;;1039821;28;19948;-77
2023/02/01 00:56:29;;;;;;;;;;;;;;;;;;1039015;28;20016;-77
2023/02/01 00:57:00;;;;;;;;;;;;;;;;;;1039572;28;19913;-76
2023/02/01 00:57:31;;;;;;;;;;;;;;;;;;1034924;28;19913;-76
2023/02/01 00:58:03;;;;;;;;;;;;;;;;;;1035941;28;20651;-76
2023/02/01 00:58:34;;;;;;;;;;;;;;;;;;1038955;28;19932;-76
2023/02/01 00:59:04;;;;;;;;;;;;;;;;;;1039424;28;19913;-76
2023/02/01 00:59:35;;;;;;;;;;;;;;;;;;1038887;28;19913;-77
2023/02/01 01:00:06;;;;;;;;;;;;;;;;;;1031605;28;19945;-77
2023/02/01 01:00:37;;;;;;;;;;;;;;;;;;1035170;28;19910;-77
2023/02/01 01:01:08;;;;;;;;;;;;;;;;;;1039830;28;20415;-76
2023/02/01 01:01:39;;;;;;;;;;;;;;;;;;1038990;28;19913;-77
2023/02/01 01:02:12;;;;;;;;;;;;;;;;;;1039392;28;20007;-76
2023/02/01 01:02:43;;;;;;;;;;;;;;;;;;1039222;28;19948;-76
2023/02/01 01:03:20;;;;;;;;;;;;;;;;;;1039804;28;20016;-77
2023/02/01 01:03:50;;;;;;;;;;;;;;;;;;1039246;28;19925;-77
2023/02/01 01:04:21;;;;;;;;;;;;;;;;;;1039217;28;20003;-77
2023/02/01 01:04:52;;;;;;;;;;;;;;;;;;1040568;28;19913;-77
2023/02/01 01:05:23;;;;;;;;;;;;;;;;;;1041874;28;19999;-77
2023/02/01 01:05:54;;;;;;;;;;;;;;;;;;1036875;28;19920;-76
2023/02/01 01:06:25;;;;;;;;;;;;;;;;;;1038221;28;19932;-76
2023/02/01 01:06:56;;;;;;;;;;;;;;;;;;1034996;28;20032;-76
2023/02/01 01:07:27;;;;;;;;;;;;;;;;;;1035246;28;19913;-76
2023/02/01 01:07:58;;;;;;;;;;;;;;;;;;1035286;28;19960;-77
2023/02/01 01:08:29;;;;;;;;;;;;;;;;;;1039543;28;19909;-76
2023/02/01 01:08:59;;;;;;;;;;;;;;;;;;1043758;28;20356;-77
2023/02/01 01:09:30;;;;;;;;;;;;;;;;;;1039234;28;19913;-76
2023/02/01 01:10:01;;;;;;;;;;;;;;;;;;1039197;28;20552;-76
2023/02/01 01:10:32;;;;;;;;;;;;;;;;;;1039140;28;19910;-76
2023/02/01 01:11:03;;;;;;;;;;;;;;;;;;1039011;28;20360;-75
2023/02/01 01:11:34;;;;;;;;;;;;;;;;;;1039379;28;19920;-76
2023/02/01 01:12:05;;;;;;;;;;;;;;;;;;1039404;28;20353;-75
2023/02/01 01:12:35;;;;;;;;;;;;;;;;;;1043566;28;19912;-76
2023/02/01 01:13:06;;;;;;;;;;;;;;;;;;1043745;28;19924;-77
2023/02/01 01:13:37;;;;;;;;;;;;;;;;;;1043650;28;20014;-76
2023/02/01 01:14:08;;;;;;;;;;;;;;;;;;1043817;28;19945;-77
2023/02/01 01:14:39;;;;;;;;;;;;;;;;;;1043546;28;19917;-77
2023/02/01 01:15:10;;;;;;;;;;;;;;;;;;1043833;28;20359;-77
2023/02/01 01:15:41;;;;;;;;;;;;;;;;;;1043792;28;19940;-77
2023/02/01 01:16:12;;;;;;;;;;;;;;;;;;1039154;28;20315;-78
2023/02/01 01:16:43;;;;;;;;;;;;;;;;;;1038880;28;19944;-76
2023/02/01 01:17:13;;;;;;;;;;;;;;;;;;1039429;28;19913;-77
2023/02/01 01:17:44;;;;;;;;;;;;;;;;;;1039200;28;20002;-76
2023/02/01 01:18:15;;;;;;;;;;;;;;;;;;1039219;28;19913;-77
2023/02/01 01:18:46;;;;;;;;;;;;;;;;;;1039321;28;19913;-76
2023/02/01 01:19:17;;;;;;;;;;;;;;;;;;1039052;28;19913;-77
2023/02/01 01:19:48;;;;;;;;;;;;;;;;;;1039238;28;19917;-76
2023/02/01 01:20:21;;;;;;;;;;;;;;;;;;1039241;28;19917;-76
2023/02/01 01:20:52;;;;;;;;;;;;;;;;;;1039426;28;20066;-77
2023/02/01 01:21:23;;;;;;;;;;;;;;;;;;1034960;28;19939;-77
2023/02/01 01:21:53;;;;;;;;;;;;;;;;;;1036982;28;19921;-77
2023/02/01 01:22:24;;;;;;;;;;;;;;;;;;1038983;28;20371;-76
2023/02/01 01:22:55;;;;;;;;;;;;;;;;;;1035067;28;20007;-76
2023/02/01 01:23:26;;;;;;;;;;;;;;;;;;1038796;28;20015;-77
2023/02/01 01:23:57;;;;;;;;;;;;;;;;;;1039196;28;19909;-76
2023/02/01 01:24:28;;;;;;;;;;;;;;;;;;1039023;28;19909;-75
2023/02/01 01:24:59;;;;;;;;;;;;;;;;;;1039233;28;19952;-76
2023/02/01 01:25:30;;;;;;;;;;;;;;;;;;1034848;28;20357;-76
2023/02/01 01:26:00;;;;;;;;;;;;;;;;;;1035416;28;19949;-76
2023/02/01 01:26:31;;;;;;;;;;;;;;;;;;1039090;28;19909;-76
2023/02/01 01:27:02;;;;;;;;;;;;;;;;;;1039280;28;19915;-76
2023/02/01 01:27:33;;;;;;;;;;;;;;;;;;1043752;28;19947;-76
2023/02/01 01:28:04;;;;;;;;;;;;;;;;;;1043546;28;19912;-77
2023/02/01 01:28:35;;;;;;;;;;;;;;;;;;1043630;28;19948;-77
2023/02/01 01:29:06;;;;;;;;;;;;;;;;;;1038969;28;19916;-76
2023/02/01 01:29:37;;;;;;;;;;;;;;;;;;1039152;28;19909;-76
2023/02/01 01:30:08;;;;;;;;;;;;;;;;;;1039074;28;19909;-77
2023/02/01 01:30:39;;;;;;;;;;;;;;;;;;1039040;28;19905;-76
2023/02/01 01:31:09;;;;;;;;;;;;;;;;;;1034987;28;20459;-76
2023/02/01 01:31:40;;;;;;;;;;;;;;;;;;1034868;28;19910;-76
2023/02/01 01:32:11;;;;;;;;;;;;;;;;;;1036785;28;20438;-76
2023/02/01 01:32:42;;;;;;;;;;;;;;;;;;1035020;28;19917;-76
2023/02/01 01:33:13;;;;;;;;;;;;;;;;;;1039044;28;20015;-76
2023/02/01 01:33:44;;;;;;;;;;;;;;;;;;1039064;28;19940;-76
2023/02/01 01:34:15;;;;;;;;;;;;;;;;;;1039246;28;19909;-76
2023/02/01 01:34:46;;;;;;;;;;;;;;;;;;1039166;28;19905;-75
2023/02/01 01:35:17;;;;;;;;;;;;;;;;;;1038935;28;20276;-75
2023/02/01 01:35:48;;;;;;;;;;;;;;;;;;1039427;28;20336;-76
2023/02/01 01:36:19;;;;;;;;;;;;;;;;;;1038781;28;19985;-76
2023/02/01 01:36:50;;;;;;;;;;;;;;;;;;1039489;28;19909;-76
2023/02/01 01:37:20;;;;;;;;;;;;;;;;;;1043502;28;19932;-76
2023/02/01 01:37:51;;;;;;;;;;;;;;;;;;1047560;28;20444;-76
2023/02/01 01:38:22;;;;;;;;;;;;;;;;;;1043182;28;19913;-76
2023/02/01 01:38:53;;;;;;;;;;;;;;;;;;1041501;28;20356;-76
2023/02/01 01:39:24;;;;;;;;;;;;;;;;;;1038949;28;19910;-77
2023/02/01 01:39:55;;;;;;;;;;;;;;;;;;1037902;28;19936;-75
2023/02/01 01:40:26;;;;;;;;;;;;;;;;;;1039510;28;19912;-75
2023/02/01 01:40:57;;;;;;;;;;;;;;;;;;1043326;28;19916;-75
2023/02/01 01:41:28;;;;;;;;;;;;;;;;;;1043232;28;20380;-76
2023/02/01 01:41:59;;;;;;;;;;;;;;;;;;1043478;28;20026;-76
2023/02/01 01:42:30;;;;;;;;;;;;;;;;;;1043288;28;19913;-76
2023/02/01 01:43:00;;;;;;;;;;;;;;;;;;1043354;28;19916;-75
2023/02/01 01:43:31;;;;;;;;;;;;;;;;;;1038746;28;19964;-75
2023/02/01 01:44:02;;;;;;;;;;;;;;;;;;1038856;28;19913;-76
2023/02/01 01:44:33;;;;;;;;;;;;;;;;;;1038847;28;19936;-76
2023/02/01 01:45:04;;;;;;;;;;;;;;;;;;1034939;28;20434;-76
2023/02/01 01:45:35;;;;;;;;;;;;;;;;;;1030806;28;19952;-76
2023/02/01 01:46:06;;;;;;;;;;;;;;;;;;1034869;28;19913;-76
2023/02/01 01:46:37;;;;;;;;;;;;;;;;;;1030902;28;20368;-76
2023/02/01 01:47:08;;;;;;;;;;;;;;;;;;1031274;28;20807;-76
2023/02/01 01:47:39;;;;;;;;;;;;;;;;;;1030780;28;20421;-76
2023/02/01 01:48:09;;;;;;;;;;;;;;;;;;1030867;28;20008;-76
2023/02/01 01:48:40;;;;;;;;;;;;;;;;;;1030884;28;20280;-77
2023/02/01 01:49:11;;;;;;;;;;;;;;;;;;1035255;28;19916;-76
2023/02/01 01:49:42;;;;;;;;;;;;;;;;;;1035061;28;20354;-76
2023/02/01 01:50:13;;;;;;;;;;;;;;;;;;1038989;28;19950;-76
2023/02/01 01:50:44;;;;;;;;;;;;;;;;;;1038925;28;19912;-76
2023/02/01 01:51:15;;;;;;;;;;;;;;;;;;1038859;28;19951;-76
2023/02/01 01:51:46;;;;;;;;;;;;;;;;;;1039040;28;19913;-75
2023/02/01 01:52:16;;;;;;;;;;;;;;;;;;1038862;28;19913;-76
2023/02/01 01:52:47;;;;;;;;;;;;;;;;;;1038856;28;19913;-76
2023/02/01 01:53:18;;;;;;;;;;;;;;;;;;1038965;28;19949;-77
2023/02/01 01:53:49;;;;;;;;;;;;;;;;;;1043321;28;19913;-76
2023/02/01 01:54:20;;;;;;;;;;;;;;;;;;1043348;28;19912;-75
2023/02/01 01:54:51;;;;;;;;;;;;;;;;;;1043722;28;19909;-76
2023/02/01 01:55:22;;;;;;;;;;;;;;;;;;1043383;28;20233;-76
2023/02/01 01:55:53;;;;;;;;;;;;;;;;;;1039311;28;19920;-77
2023/02/01 01:56:23;;;;;;;;;;;;;;;;;;1038952;28;19913;-77
2023/02/01 01:56:54;;;;;;;;;;;;;;;;;;1039361;28;19971;-77
2023/02/01 01:57:25;;;;;;;;;;;;;;;;;;1038846;28;19921;-76
2023/02/01 01:57:56;;;;;;;;;;;;;;;;;;1039017;28;19975;-77
2023/02/01 01:58:27;;;;;;;;;;;;;;;;;;1035175;28;19949;-77
2023/02/01 01:58:58;;;;;;;;;;;;;;;;;;1035210;28;19940;-77
2023/02/01 01:59:29;;;;;;;;;;;;;;;;;;1034733;28;19920;-76
2023/02/01 02:00:00;;;;;;;;;;;;;;;;;;1031212;28;19917;-75
2023/02/01 02:00:30;;;;;;;;;;;;;;;;;;1030915;28;19977;-76
2023/02/01 02:01:01;;;;;;;;;;;;;;;;;;1032240;28;19941;-76
2023/02/01 02:01:32;;;;;;;;;;;;;;;;;;1039179;28;19913;-75
2023/02/01 02:02:03;;;;;;;;;;;;;;;;;;1035171;28;19983;-76
2023/02/01 02:02:34;;;;;;;;;;;;;;;;;;1034794;28;20390;-76
2023/02/01 02:03:05;;;;;;;;;;;;;;;;;;1039252;28;19917;-77
2023/02/01 02:03:36;;;;;;;;;;;;;;;;;;1035242;28;20303;-76
2023/02/01 02:04:09;;;;;;;;;;;;;;;;;;1038980;28;19913;-77
2023/02/01 02:04:40;;;;;;;;;;;;;;;;;;1034791;28;19918;-77
2023/02/01 02:05:11;;;;;;;;;;;;;;;;;;1035871;28;19913;-76
2023/02/01 02:05:42;;;;;;;;;;;;;;;;;;1034926;28;20004;-76
2023/02/01 02:06:13;;;;;;;;;;;;;;;;;;1035192;28;19921;-77
2023/02/01 02:06:47;;;;;;;;;;;;;;;;;;1038978;28;20014;-77
2023/02/01 02:07:18;;;;;;;;;;;;;;;;;;1039905;28;20423;-78
2023/02/01 02:07:49;;;;;;;;;;;;;;;;;;1043425;28;20364;-77
2023/02/01 02:08:20;;;;;;;;;;;;;;;;;;1039007;28;19909;-77
2023/02/01 02:08:51;;;;;;;;;;;;;;;;;;1039298;28;19973;-77
2023/02/01 02:09:22;;;;;;;;;;;;;;;;;;1034899;28;19913;-78
2023/02/01 02:09:53;;;;;;;;;;;;;;;;;;1035565;28;19913;-77
2023/02/01 02:10:59;;;;;;;;;;;;;;;;;;1039155;28;20494;-75
2023/02/01 02:11:14;;;;;;;;;;;;;;;;;;1042399;28;19913;-77
2023/02/01 02:11:45;;;;;;;;;;;;;;;;;;1043673;28;19908;-77
2023/02/01 02:12:16;;;;;;;;;;;;;;;;;;1043529;28;19912;-77
2023/02/01 02:12:47;;;;;;;;;;;;;;;;;;1043678;28;19995;-76
2023/02/01 02:13:18;;;;;;;;;;;;;;;;;;1043486;28;19913;-77
2023/02/01 02:13:49;;;;;;;;;;;;;;;;;;1043705;28;19924;-76
2023/02/01 02:14:19;;;;;;;;;;;;;;;;;;1039147;28;20384;-76
2023/02/01 02:14:50;;;;;;;;;;;;;;;;;;1034962;28;19914;-77
2023/02/01 02:15:22;;;;;;;;;;;;;;;;;;1034872;28;20632;-76
2023/02/01 02:15:53;;;;;;;;;;;;;;;;;;1031551;28;19969;-75
2023/02/01 02:16:25;;;;;;;;;;;;;;;;;;1034991;28;19914;-77
2023/02/01 02:16:56;;;;;;;;;;;;;;;;;;1034975;28;19921;-77
2023/02/01 02:17:27;;;;;;;;;;;;;;;;;;1031260;28;20005;-76
2023/02/01 02:17:58;;;;;;;;;;;;;;;;;;1035159;28;19921;-76
2023/02/01 02:18:29;;;;;;;;;;;;;;;;;;1031026;28;20025;-75
2023/02/01 02:19:00;;;;;;;;;;;;;;;;;;1035470;28;19913;-77
2023/02/01 02:19:31;;;;;;;;;;;;;;;;;;1039223;28;19913;-76
2023/02/01 02:20:02;;;;;;;;;;;;;;;;;;1043696;28;20024;-77
2023/02/01 02:20:33;;;;;;;;;;;;;;;;;;1043610;28;19940;-77
2023/02/01 02:21:03;;;;;;;;;;;;;;;;;;1043679;28;19912;-77
2023/02/01 02:21:34;;;;;;;;;;;;;;;;;;1043281;28;19913;-76
2023/02/01 02:22:05;;;;;;;;;;;;;;;;;;1043790;28;19975;-76
2023/02/01 02:22:36;;;;;;;;;;;;;;;;;;1043192;28;19920;-76
2023/02/01 02:23:07;;;;;;;;;;;;;;;;;;1043640;28;19914;-76
2023/02/01 02:23:38;;;;;;;;;;;;;;;;;;1043389;28;19921;-76
2023/02/01 02:24:09;;;;;;;;;;;;;;;;;;1043568;28;19962;-76
2023/02/01 02:24:40;;;;;;;;;;;;;;;;;;1038893;28;20351;-76
2023/02/01 02:25:11;;;;;;;;;;;;;;;;;;1039151;28;19924;-76
2023/02/01 02:25:41;;;;;;;;;;;;;;;;;;1039092;28;19998;-77
2023/02/01 02:26:12;;;;;;;;;;;;;;;;;;1039555;28;19920;-76
2023/02/01 02:26:43;;;;;;;;;;;;;;;;;;1038738;28;20107;-76
2023/02/01 02:27:26;;;;;;;;;;;;;;;;;;1035181;28;19920;-77
2023/02/01 02:27:57;;;;;;;;;;;;;;;;;;1034929;28;19914;-76
2023/02/01 02:28:28;;;;;;;;;;;;;;;;;;1036945;28;19921;-76
2023/02/01 02:28:59;;;;;;;;;;;;;;;;;;1036645;28;19925;-76
2023/02/01 02:29:30;;;;;;;;;;;;;;;;;;1035134;28;19920;-76
2023/02/01 02:30:00;;;;;;;;;;;;;;;;;;1034836;28;19909;-76
2023/02/01 02:30:31;;;;;;;;;;;;;;;;;;1035167;28;20012;-77
2023/02/01 02:31:02;;;;;;;;;;;;;;;;;;1035003;28;19924;-76
2023/02/01 02:31:33;;;;;;;;;;;;;;;;;;1035079;28;19913;-76
2023/02/01 02:32:04;;;;;;;;;;;;;;;;;;1037968;28;19992;-76
2023/02/01 02:32:35;;;;;;;;;;;;;;;;;;1027387;28;19914;-77
2023/02/01 02:33:06;;;;;;;;;;;;;;;;;;1030974;28;19973;-77
2023/02/01 02:33:37;;;;;;;;;;;;;;;;;;1033340;28;20373;-76
2023/02/01 02:34:08;;;;;;;;;;;;;;;;;;1031141;28;20276;-77
2023/02/01 02:34:38;;;;;;;;;;;;;;;;;;1030990;28;20300;-77
2023/02/01 02:35:09;;;;;;;;;;;;;;;;;;1031058;28;20503;-77
2023/02/01 02:35:40;;;;;;;;;;;;;;;;;;1030895;28;19952;-77
2023/02/01 02:36:11;;;;;;;;;;;;;;;;;;1031121;28;19914;-76
2023/02/01 02:36:42;;;;;;;;;;;;;;;;;;1034859;28;19914;-78
2023/02/01 02:37:13;;;;;;;;;;;;;;;;;;1035605;28;19963;-77
2023/02/01 02:37:44;;;;;;;;;;;;;;;;;;1035027;28;20593;-77
2023/02/01 02:38:15;;;;;;;;;;;;;;;;;;1035078;28;20559;-78
2023/02/01 02:38:45;;;;;;;;;;;;;;;;;;1038052;28;19971;-76
2023/02/01 02:39:16;;;;;;;;;;;;;;;;;;1043053;28;20405;-77
2023/02/01 02:39:49;;;;;;;;;;;;;;;;;;1041608;28;19909;-76
2023/02/01 02:40:21;;;;;;;;;;;;;;;;;;1045386;28;19905;-76
2023/02/01 02:40:52;;;;;;;;;;;;;;;;;;1047598;28;19975;-77
2023/02/01 02:47:27;;;;;;;;;;;;;;;;;;1048492;28;19920;-76
2023/02/01 02:47:58;;;;;;;;;;;;;;;;;;1044234;28;19917;-77
2023/02/01 02:48:29;;;;;;;;;;;;;;;;;;1044389;28;19913;-78
2023/02/01 02:48:59;;;;;;;;;;;;;;;;;;1047661;28;20025;-77
2023/02/01 02:49:30;;;;;;;;;;;;;;;;;;1048515;28;20618;-79
2023/02/01 02:55:06;;;;;;;;;;;;;;;;;;1048579;28;19924;-76
2023/02/01 02:55:38;;;;;;;;;;;;;;;;;;1048323;28;19908;-76
2023/02/01 03:04:25;;;;;;;;;;;;;;;;;;1044266;28;19958;-77
2023/02/01 03:04:56;;;;;;;;;;;;;;;;;;1044344;28;19909;-77
2023/02/01 03:05:28;;;;;;;;;;;;;;;;;;1044160;28;19909;-76
2023/02/01 03:06:02;;;;;;;;;;;;;;;;;;1042942;28;19905;-77
2023/02/01 03:06:33;;;;;;;;;;;;;;;;;;1039617;28;19960;-77
2023/02/01 03:07:04;;;;;;;;;;;;;;;;;;1039931;28;19916;-76
2023/02/01 03:07:35;;;;;;;;;;;;;;;;;;1040086;28;19928;-76
2023/02/01 03:08:06;;;;;;;;;;;;;;;;;;1044064;28;20007;-76
2023/02/01 03:08:36;;;;;;;;;;;;;;;;;;1039906;28;19909;-77
2023/02/01 03:09:07;;;;;;;;;;;;;;;;;;1043834;28;19909;-76
2023/02/01 03:09:38;;;;;;;;;;;;;;;;;;1043596;28;19999;-76
2023/02/01 03:10:09;;;;;;;;;;;;;;;;;;1044112;28;19912;-76
2023/02/01 03:10:40;;;;;;;;;;;;;;;;;;1043531;28;20355;-75
2023/02/01 03:11:11;;;;;;;;;;;;;;;;;;1039935;28;19916;-76
2023/02/01 03:13:21;;;;;;;;;;;;;;;;;;1044997;28;20015;-75
2023/02/01 03:13:51;;;;;;;;;;;;;;;;;;1048314;28;19913;-76
2023/02/01 03:14:22;;;;;;;;;;;;;;;;;;1043804;28;20576;-76
2023/02/01 03:14:53;;;;;;;;;;;;;;;;;;1043567;28;19916;-76
2023/02/01 03:15:26;;;;;;;;;;;;;;;;;;1039488;28;19936;-76
2023/02/01 03:15:59;;;;;;;;;;;;;;;;;;1039502;28;19943;-76
2023/02/01 03:16:30;;;;;;;;;;;;;;;;;;1041872;28;19913;-76
2023/02/01 03:17:01;;;;;;;;;;;;;;;;;;1043903;28;19905;-77
2023/02/01 03:17:32;;;;;;;;;;;;;;;;;;1040323;28;20028;-76
2023/02/01 03:18:03;;;;;;;;;;;;;;;;;;1043810;28;19909;-76
2023/02/01 03:18:33;;;;;;;;;;;;;;;;;;1043957;28;20364;-77
2023/02/01 03:19:05;;;;;;;;;;;;;;;;;;1043931;28;19908;-77
2023/02/01 03:19:36;;;;;;;;;;;;;;;;;;1044022;28;19916;-77
2023/02/01 03:20:06;;;;;;;;;;;;;;;;;;1039639;28;19916;-77
2023/02/01 03:20:37;;;;;;;;;;;;;;;;;;1040165;28;19905;-78
2023/02/01 03:21:08;;;;;;;;;;;;;;;;;;1043925;28;20003;-77
2023/02/01 03:21:39;;;;;;;;;;;;;;;;;;1043573;28;19916;-77
2023/02/01 03:22:10;;;;;;;;;;;;;;;;;;1044022;28;19932;-77
2023/02/01 03:22:41;;;;;;;;;;;;;;;;;;1039235;28;20038;-76
2023/02/01 03:23:12;;;;;;;;;;;;;;;;;;1039736;28;19980;-77
2023/02/01 03:23:44;;;;;;;;;;;;;;;;;;1039556;28;20000;-77
2023/02/01 03:24:14;;;;;;;;;;;;;;;;;;1040283;28;20059;-77
2023/02/01 03:24:45;;;;;;;;;;;;;;;;;;1039765;28;19962;-77
2023/02/01 03:25:16;;;;;;;;;;;;;;;;;;1039901;28;20399;-77
2023/02/01 03:25:47;;;;;;;;;;;;;;;;;;1039936;28;19920;-76
2023/02/01 03:26:18;;;;;;;;;;;;;;;;;;1044215;28;20043;-76
2023/02/01 03:26:49;;;;;;;;;;;;;;;;;;1048001;28;19924;-76
2023/02/01 03:27:20;;;;;;;;;;;;;;;;;;1048565;28;19908;-75
2023/02/01 03:27:51;;;;;;;;;;;;;;;;;;1048189;28;19912;-75
2023/02/01 03:28:21;;;;;;;;;;;;;;;;;;1043884;28;19920;-76
2023/02/01 03:28:52;;;;;;;;;;;;;;;;;;1043795;28;20882;-76
2023/02/01 03:29:23;;;;;;;;;;;;;;;;;;1039589;28;19913;-74
2023/02/01 03:29:54;;;;;;;;;;;;;;;;;;1039471;28;20350;-77
2023/02/01 03:30:25;;;;;;;;;;;;;;;;;;1043676;28;20388;-76
2023/02/01 03:30:56;;;;;;;;;;;;;;;;;;1043858;28;19937;-76
2023/02/01 03:31:27;;;;;;;;;;;;;;;;;;1043924;28;19944;-75
2023/02/01 03:31:58;;;;;;;;;;;;;;;;;;1043362;28;19909;-76
2023/02/01 03:32:29;;;;;;;;;;;;;;;;;;1043799;28;20004;-77
2023/02/01 03:33:00;;;;;;;;;;;;;;;;;;1043846;28;19978;-76
2023/02/01 03:33:31;;;;;;;;;;;;;;;;;;1039756;28;19956;-76
2023/02/01 03:34:01;;;;;;;;;;;;;;;;;;1043766;28;19930;-79
2023/02/01 03:34:32;;;;;;;;;;;;;;;;;;1039671;28;19919;-78
2023/02/01 03:35:04;;;;;;;;;;;;;;;;;;1039868;28;19920;-78
2023/02/01 03:35:35;;;;;;;;;;;;;;;;;;1043879;28;20023;-75
2023/02/01 03:36:09;;;;;;;;;;;;;;;;;;1044203;28;20013;-76
2023/02/01 03:36:40;;;;;;;;;;;;;;;;;;1043666;28;19912;-75
2023/02/01 03:37:11;;;;;;;;;;;;;;;;;;1043778;28;20343;-76
2023/02/01 03:37:42;;;;;;;;;;;;;;;;;;1043700;28;19919;-76
2023/02/01 03:38:13;;;;;;;;;;;;;;;;;;1043899;28;19999;-78
2023/02/01 03:38:44;;;;;;;;;;;;;;;;;;1043613;28;22000;-77
2023/02/01 03:39:15;;;;;;;;;;;;;;;;;;1043775;28;19915;-77
2023/02/01 03:39:45;;;;;;;;;;;;;;;;;;1043621;28;20815;-76
2023/02/01 03:40:18;;;;;;;;;;;;;;;;;;1043534;28;20087;-76
2023/02/01 03:40:49;;;;;;;;;;;;;;;;;;1043778;28;19925;-76
2023/02/01 03:41:20;;;;;;;;;;;;;;;;;;1043647;28;19913;-76
2023/02/01 03:41:51;;;;;;;;;;;;;;;;;;1044471;28;20011;-76
2023/02/01 03:42:22;;;;;;;;;;;;;;;;;;1043525;28;20266;-76
2023/02/01 03:42:53;;;;;;;;;;;;;;;;;;1043959;28;19979;-76
2023/02/01 03:43:24;;;;;;;;;;;;;;;;;;1043640;28;20408;-76
2023/02/01 03:43:55;;;;;;;;;;;;;;;;;;1043792;28;19958;-77
2023/02/01 03:44:25;;;;;;;;;;;;;;;;;;1048199;28;20634;-77
2023/02/01 03:44:56;;;;;;;;;;;;;;;;;;1048308;28;20236;-76
2023/02/01 03:45:27;;;;;;;;;;;;;;;;;;1043486;28;20288;-76
2023/02/01 03:45:58;;;;;;;;;;;;;;;;;;1039512;28;20008;-76
2023/02/01 03:46:32;;;;;;;;;;;;;;;;;;1035465;28;20509;-76
2023/02/01 03:47:03;;;;;;;;;;;;;;;;;;1036170;28;19910;-77
2023/02/01 03:47:34;;;;;;;;;;;;;;;;;;1040120;28;19916;-76
2023/02/01 03:48:05;;;;;;;;;;;;;;;;;;1043888;28;19905;-76
2023/02/01 03:48:36;;;;;;;;;;;;;;;;;;1043519;28;19952;-76
2023/02/01 03:49:07;;;;;;;;;;;;;;;;;;1039777;28;19909;-77
2023/02/01 03:49:38;;;;;;;;;;;;;;;;;;1039473;28;19995;-77
2023/02/01 03:50:08;;;;;;;;;;;;;;;;;;1039723;28;19977;-76
2023/02/01 03:50:39;;;;;;;;;;;;;;;;;;1042263;28;19999;-76
2023/02/01 03:51:10;;;;;;;;;;;;;;;;;;1044022;28;20003;-77
2023/02/01 03:51:41;;;;;;;;;;;;;;;;;;1048079;28;19909;-76
2023/02/01 03:52:12;;;;;;;;;;;;;;;;;;1043638;28;19913;-77
2023/02/01 03:52:43;;;;;;;;;;;;;;;;;;1047621;28;19909;-77
2023/02/01 03:53:14;;;;;;;;;;;;;;;;;;1048200;28;19909;-76